sensor_id;sensor_type;location;lat;lon;timestamp;P1;durP1;ratioP1;P2;durP2;ratioP2
14992;SDS011;7592;51.088;13.732;2022-10-16T00:03:52;18.17;;;16.37;;
14992;SDS011;7592;51.088;13.732;2022-10-16T00:08:44;18.60;;;16.80;;
14992;SDS011;7592;51.088;13.732;2022-10-16T00:13:38;17.47;;;15.83;;
14992;SDS011;7592;51.088;13.732;2022-10-16T00:18:32;18.77;;;16.97;;
14992;SDS011;7592;51.088;13.732;2022-10-16T00:23:24;17.60;;;15.80;;
14992;SDS011;7592;51.088;13.732;2022-10-16T00:28:18;18.00;;;16.40;;
14992;SDS011;7592;51.088;13.732;2022-10-16T00:33:11;17.97;;;16.37;;
14992;SDS011;7592;51.088;13.732;2022-10-16T00:38:03;17.97;;;16.13;;
14992;SDS011;7592;51.088;13.732;2022-10-16T00:42:56;17.03;;;15.53;;
14992;SDS011;7592;51.088;13.732;2022-10-16T00:47:48;16.93;;;15.37;;
14992;SDS011;7592;51.088;13.732;2022-10-16T00:52:44;17.83;;;16.20;;
14992;SDS011;7592;51.088;13.732;2022-10-16T00:57:40;17.07;;;15.47;;
14992;SDS011;7592;51.088;13.732;2022-10-16T01:02:35;18.57;;;16.87;;
14992;SDS011;7592;51.088;13.732;2022-10-16T01:28:17;15.23;;;13.87;;
14992;SDS011;7592;51.088;13.732;2022-10-16T01:33:15;15.30;;;13.73;;
14992;SDS011;7592;51.088;13.732;2022-10-16T01:43:51;13.70;;;12.50;;
14992;SDS011;7592;51.088;13.732;2022-10-16T01:48:56;15.07;;;13.77;;
14992;SDS011;7592;51.088;13.732;2022-10-16T01:53:52;14.77;;;13.43;;
14992;SDS011;7592;51.088;13.732;2022-10-16T01:58:48;14.10;;;13.00;;
14992;SDS011;7592;51.088;13.732;2022-10-16T02:03:46;15.80;;;14.30;;
14992;SDS011;7592;51.088;13.732;2022-10-16T02:08:42;15.40;;;14.00;;
14992;SDS011;7592;51.088;13.732;2022-10-16T02:13:41;14.83;;;13.63;;
14992;SDS011;7592;51.088;13.732;2022-10-16T02:18:38;15.73;;;14.43;;
14992;SDS011;7592;51.088;13.732;2022-10-16T02:23:35;16.33;;;14.93;;
14992;SDS011;7592;51.088;13.732;2022-10-16T02:28:42;16.60;;;15.13;;
14992;SDS011;7592;51.088;13.732;2022-10-16T02:33:39;16.83;;;15.30;;
14992;SDS011;7592;51.088;13.732;2022-10-16T02:38:34;17.07;;;15.47;;
14992;SDS011;7592;51.088;13.732;2022-10-16T02:43:28;17.40;;;15.77;;
14992;SDS011;7592;51.088;13.732;2022-10-16T02:48:21;17.20;;;15.80;;
14992;SDS011;7592;51.088;13.732;2022-10-16T02:53:13;17.87;;;16.07;;
14992;SDS011;7592;51.088;13.732;2022-10-16T02:58:07;16.43;;;15.13;;
14992;SDS011;7592;51.088;13.732;2022-10-16T03:03:00;15.83;;;14.53;;
14992;SDS011;7592;51.088;13.732;2022-10-16T03:07:52;17.40;;;15.97;;
14992;SDS011;7592;51.088;13.732;2022-10-16T03:12:45;15.47;;;14.27;;
14992;SDS011;7592;51.088;13.732;2022-10-16T03:17:37;16.60;;;15.10;;
14992;SDS011;7592;51.088;13.732;2022-10-16T03:22:30;16.23;;;14.93;;
14992;SDS011;7592;51.088;13.732;2022-10-16T03:27:23;16.87;;;15.50;;
14992;SDS011;7592;51.088;13.732;2022-10-16T03:32:16;16.93;;;15.53;;
14992;SDS011;7592;51.088;13.732;2022-10-16T03:37:09;16.90;;;15.60;;
14992;SDS011;7592;51.088;13.732;2022-10-16T03:42:01;17.00;;;15.60;;
14992;SDS011;7592;51.088;13.732;2022-10-16T03:46:54;17.83;;;16.27;;
14992;SDS011;7592;51.088;13.732;2022-10-16T03:51:47;16.40;;;15.13;;
14992;SDS011;7592;51.088;13.732;2022-10-16T03:56:39;19.00;;;17.37;;
14992;SDS011;7592;51.088;13.732;2022-10-16T04:01:32;18.83;;;17.13;;
14992;SDS011;7592;51.088;13.732;2022-10-16T04:06:24;16.80;;;15.33;;
14992;SDS011;7592;51.088;13.732;2022-10-16T04:11:17;17.70;;;16.30;;
14992;SDS011;7592;51.088;13.732;2022-10-16T04:16:09;17.73;;;16.23;;
14992;SDS011;7592;51.088;13.732;2022-10-16T04:21:05;17.90;;;16.40;;
14992;SDS011;7592;51.088;13.732;2022-10-16T04:25:59;18.97;;;17.17;;
14992;SDS011;7592;51.088;13.732;2022-10-16T04:30:52;17.83;;;16.10;;
14992;SDS011;7592;51.088;13.732;2022-10-16T04:35:45;16.93;;;15.53;;
14992;SDS011;7592;51.088;13.732;2022-10-16T04:40:38;17.57;;;16.07;;
14992;SDS011;7592;51.088;13.732;2022-10-16T04:45:31;18.80;;;17.20;;
14992;SDS011;7592;51.088;13.732;2022-10-16T04:50:23;18.13;;;16.53;;
14992;SDS011;7592;51.088;13.732;2022-10-16T04:55:29;16.80;;;15.30;;
14992;SDS011;7592;51.088;13.732;2022-10-16T05:00:22;18.23;;;16.73;;
14992;SDS011;7592;51.088;13.732;2022-10-16T05:05:14;18.30;;;16.67;;
14992;SDS011;7592;51.088;13.732;2022-10-16T05:10:07;18.33;;;16.77;;
14992;SDS011;7592;51.088;13.732;2022-10-16T05:14:59;19.10;;;17.50;;
14992;SDS011;7592;51.088;13.732;2022-10-16T05:19:52;20.23;;;18.27;;
14992;SDS011;7592;51.088;13.732;2022-10-16T05:24:45;18.37;;;16.87;;
14992;SDS011;7592;51.088;13.732;2022-10-16T05:29:37;18.33;;;16.73;;
14992;SDS011;7592;51.088;13.732;2022-10-16T05:34:30;27.30;;;24.80;;
14992;SDS011;7592;51.088;13.732;2022-10-16T05:39:22;19.70;;;18.07;;
14992;SDS011;7592;51.088;13.732;2022-10-16T05:44:15;18.73;;;17.33;;
14992;SDS011;7592;51.088;13.732;2022-10-16T05:49:07;19.33;;;17.40;;
14992;SDS011;7592;51.088;13.732;2022-10-16T05:59:34;19.10;;;17.40;;
14992;SDS011;7592;51.088;13.732;2022-10-16T06:05:03;18.60;;;17.00;;
14992;SDS011;7592;51.088;13.732;2022-10-16T06:09:56;17.23;;;15.83;;
14992;SDS011;7592;51.088;13.732;2022-10-16T06:14:49;15.27;;;14.07;;
14992;SDS011;7592;51.088;13.732;2022-10-16T06:19:42;16.37;;;15.07;;
14992;SDS011;7592;51.088;13.732;2022-10-16T06:24:35;17.73;;;16.17;;
14992;SDS011;7592;51.088;13.732;2022-10-16T06:29:27;15.57;;;14.37;;
14992;SDS011;7592;51.088;13.732;2022-10-16T06:34:20;13.57;;;12.50;;
14992;SDS011;7592;51.088;13.732;2022-10-16T06:39:13;13.70;;;12.70;;
14992;SDS011;7592;51.088;13.732;2022-10-16T06:44:06;12.77;;;11.87;;
14992;SDS011;7592;51.088;13.732;2022-10-16T06:48:59;13.43;;;12.37;;
14992;SDS011;7592;51.088;13.732;2022-10-16T06:53:53;12.80;;;11.90;;
14992;SDS011;7592;51.088;13.732;2022-10-16T06:58:55;12.60;;;11.70;;
14992;SDS011;7592;51.088;13.732;2022-10-16T07:03:48;12.50;;;11.47;;
14992;SDS011;7592;51.088;13.732;2022-10-16T07:08:41;12.43;;;11.53;;
14992;SDS011;7592;51.088;13.732;2022-10-16T07:13:36;12.93;;;11.90;;
14992;SDS011;7592;51.088;13.732;2022-10-16T07:18:30;14.00;;;13.00;;
14992;SDS011;7592;51.088;13.732;2022-10-16T07:23:23;12.13;;;11.17;;
14992;SDS011;7592;51.088;13.732;2022-10-16T07:28:16;15.70;;;14.50;;
14992;SDS011;7592;51.088;13.732;2022-10-16T07:33:10;13.37;;;12.17;;
14992;SDS011;7592;51.088;13.732;2022-10-16T07:38:02;13.67;;;12.60;;
14992;SDS011;7592;51.088;13.732;2022-10-16T07:43:03;14.30;;;13.20;;
14992;SDS011;7592;51.088;13.732;2022-10-16T07:47:57;13.23;;;12.23;;
14992;SDS011;7592;51.088;13.732;2022-10-16T07:52:50;13.57;;;12.37;;
14992;SDS011;7592;51.088;13.732;2022-10-16T07:57:43;13.53;;;12.50;;
14992;SDS011;7592;51.088;13.732;2022-10-16T08:02:36;13.17;;;12.27;;
14992;SDS011;7592;51.088;13.732;2022-10-16T08:07:28;13.40;;;12.23;;
14992;SDS011;7592;51.088;13.732;2022-10-16T08:12:21;12.27;;;11.30;;
14992;SDS011;7592;51.088;13.732;2022-10-16T08:17:13;11.07;;;10.33;;
14992;SDS011;7592;51.088;13.732;2022-10-16T08:22:07;9.87;;;9.17;;
14992;SDS011;7592;51.088;13.732;2022-10-16T08:26:59;9.60;;;9.00;;
14992;SDS011;7592;51.088;13.732;2022-10-16T08:31:54;9.63;;;8.87;;
14992;SDS011;7592;51.088;13.732;2022-10-16T08:36:47;9.40;;;8.50;;
14992;SDS011;7592;51.088;13.732;2022-10-16T10:48:44;2.33;;;0.30;;
14992;SDS011;7592;51.088;13.732;2022-10-16T10:54:00;0.87;;;0.30;;
14992;SDS011;7592;51.088;13.732;2022-10-16T11:10:21;3.00;;;0.60;;
14992;SDS011;7592;51.088;13.732;2022-10-16T11:15:25;0.93;;;0.37;;
14992;SDS011;7592;51.088;13.732;2022-10-16T11:20:37;0.38;;;0.20;;
14992;SDS011;7592;51.088;13.732;2022-10-16T11:25:43;1.25;;;0.40;;
14992;SDS011;7592;51.088;13.732;2022-10-16T11:46:27;0.33;;;0.20;;
14992;SDS011;7592;51.088;13.732;2022-10-16T11:56:45;0.27;;;0.20;;
14992;SDS011;7592;51.088;13.732;2022-10-16T12:01:49;0.77;;;0.30;;
14992;SDS011;7592;51.088;13.732;2022-10-16T12:07:27;1.20;;;1.20;;
14992;SDS011;7592;51.088;13.732;2022-10-16T12:12:38;0.83;;;0.40;;
14992;SDS011;7592;51.088;13.732;2022-10-16T12:17:35;2.37;;;0.30;;
14992;SDS011;7592;51.088;13.732;2022-10-16T12:22:30;0.83;;;0.40;;
14992;SDS011;7592;51.088;13.732;2022-10-16T12:27:35;0.73;;;0.20;;
14992;SDS011;7592;51.088;13.732;2022-10-16T12:32:32;0.93;;;0.30;;
14992;SDS011;7592;51.088;13.732;2022-10-16T12:37:43;0.33;;;0.30;;
14992;SDS011;7592;51.088;13.732;2022-10-16T12:42:58;0.20;;;0.20;;
14992;SDS011;7592;51.088;13.732;2022-10-16T12:47:54;1.10;;;0.30;;
14992;SDS011;7592;51.088;13.732;2022-10-16T12:52:47;1.70;;;0.30;;
14992;SDS011;7592;51.088;13.732;2022-10-16T13:09:59;0.30;;;0.30;;
14992;SDS011;7592;51.088;13.732;2022-10-16T13:21:16;1.80;;;0.30;;
14992;SDS011;7592;51.088;13.732;2022-10-16T13:31:05;1.70;;;0.40;;
14992;SDS011;7592;51.088;13.732;2022-10-16T13:36:42;1.10;;;0.50;;
14992;SDS011;7592;51.088;13.732;2022-10-16T13:41:38;1.47;;;0.30;;
14992;SDS011;7592;51.088;13.732;2022-10-16T13:46:32;1.30;;;0.30;;
14992;SDS011;7592;51.088;13.732;2022-10-16T13:51:26;1.23;;;0.50;;
14992;SDS011;7592;51.088;13.732;2022-10-16T13:56:20;2.93;;;2.70;;
14992;SDS011;7592;51.088;13.732;2022-10-16T14:01:16;1.27;;;0.67;;
14992;SDS011;7592;51.088;13.732;2022-10-16T14:06:20;1.10;;;0.70;;
14992;SDS011;7592;51.088;13.732;2022-10-16T14:17:51;0.80;;;0.80;;
14992;SDS011;7592;51.088;13.732;2022-10-16T14:22:45;2.40;;;1.20;;
14992;SDS011;7592;51.088;13.732;2022-10-16T14:27:38;1.50;;;1.40;;
14992;SDS011;7592;51.088;13.732;2022-10-16T14:32:32;1.07;;;1.07;;
14992;SDS011;7592;51.088;13.732;2022-10-16T14:37:35;1.53;;;1.43;;
14992;SDS011;7592;51.088;13.732;2022-10-16T14:42:28;2.70;;;2.50;;
14992;SDS011;7592;51.088;13.732;2022-10-16T14:47:22;2.87;;;1.77;;
14992;SDS011;7592;51.088;13.732;2022-10-16T14:52:22;2.10;;;1.47;;
14992;SDS011;7592;51.088;13.732;2022-10-16T14:57:26;2.80;;;1.30;;
14992;SDS011;7592;51.088;13.732;2022-10-16T15:02:31;1.80;;;1.10;;
14992;SDS011;7592;51.088;13.732;2022-10-16T15:07:49;2.23;;;1.50;;
14992;SDS011;7592;51.088;13.732;2022-10-16T15:12:46;3.07;;;1.70;;
14992;SDS011;7592;51.088;13.732;2022-10-16T15:17:42;2.40;;;2.20;;
14992;SDS011;7592;51.088;13.732;2022-10-16T15:22:36;2.43;;;1.50;;
14992;SDS011;7592;51.088;13.732;2022-10-16T15:27:31;3.43;;;2.20;;
14992;SDS011;7592;51.088;13.732;2022-10-16T15:32:33;2.37;;;1.83;;
14992;SDS011;7592;51.088;13.732;2022-10-16T15:37:30;2.50;;;2.30;;
14992;SDS011;7592;51.088;13.732;2022-10-16T15:42:24;8.00;;;4.00;;
14992;SDS011;7592;51.088;13.732;2022-10-16T15:47:19;3.30;;;2.90;;
14992;SDS011;7592;51.088;13.732;2022-10-16T15:52:14;2.13;;;2.03;;
14992;SDS011;7592;51.088;13.732;2022-10-16T15:57:10;3.30;;;3.00;;
14992;SDS011;7592;51.088;13.732;2022-10-16T16:02:05;3.10;;;2.43;;
14992;SDS011;7592;51.088;13.732;2022-10-16T16:07:05;4.07;;;3.67;;
14992;SDS011;7592;51.088;13.732;2022-10-16T16:11:59;3.30;;;3.00;;
14992;SDS011;7592;51.088;13.732;2022-10-16T16:16:56;4.93;;;4.00;;
14992;SDS011;7592;51.088;13.732;2022-10-16T16:21:55;3.30;;;2.70;;
14992;SDS011;7592;51.088;13.732;2022-10-16T16:26:48;3.80;;;3.43;;
14992;SDS011;7592;51.088;13.732;2022-10-16T16:31:42;6.40;;;4.67;;
14992;SDS011;7592;51.088;13.732;2022-10-16T16:36:36;8.87;;;8.10;;
14992;SDS011;7592;51.088;13.732;2022-10-16T16:41:30;5.53;;;5.13;;
14992;SDS011;7592;51.088;13.732;2022-10-16T16:46:24;5.03;;;4.50;;
14992;SDS011;7592;51.088;13.732;2022-10-16T16:51:21;4.63;;;4.23;;
14992;SDS011;7592;51.088;13.732;2022-10-16T16:56:15;10.57;;;7.33;;
14992;SDS011;7592;51.088;13.732;2022-10-16T17:01:12;4.87;;;4.27;;
14992;SDS011;7592;51.088;13.732;2022-10-16T17:06:14;8.10;;;7.30;;
14992;SDS011;7592;51.088;13.732;2022-10-16T17:11:12;8.57;;;7.73;;
14992;SDS011;7592;51.088;13.732;2022-10-16T17:16:15;6.80;;;6.13;;
14992;SDS011;7592;51.088;13.732;2022-10-16T17:21:24;7.73;;;5.50;;
14992;SDS011;7592;51.088;13.732;2022-10-16T17:26:19;6.00;;;4.80;;
14992;SDS011;7592;51.088;13.732;2022-10-16T17:31:17;5.63;;;5.13;;
14992;SDS011;7592;51.088;13.732;2022-10-16T17:36:14;6.77;;;6.10;;
14992;SDS011;7592;51.088;13.732;2022-10-16T17:41:20;6.40;;;5.80;;
14992;SDS011;7592;51.088;13.732;2022-10-16T17:46:33;4.93;;;4.53;;
14992;SDS011;7592;51.088;13.732;2022-10-16T17:51:31;18.80;;;10.80;;
14992;SDS011;7592;51.088;13.732;2022-10-16T17:56:25;6.00;;;5.40;;
14992;SDS011;7592;51.088;13.732;2022-10-16T18:01:20;8.37;;;6.37;;
14992;SDS011;7592;51.088;13.732;2022-10-16T18:06:38;8.27;;;6.50;;
14992;SDS011;7592;51.088;13.732;2022-10-16T18:11:34;6.87;;;5.27;;
14992;SDS011;7592;51.088;13.732;2022-10-16T18:16:31;5.20;;;4.70;;
14992;SDS011;7592;51.088;13.732;2022-10-16T18:21:33;7.57;;;6.87;;
14992;SDS011;7592;51.088;13.732;2022-10-16T18:26:33;4.50;;;4.10;;
14992;SDS011;7592;51.088;13.732;2022-10-16T18:31:34;5.17;;;4.77;;
14992;SDS011;7592;51.088;13.732;2022-10-16T18:36:35;6.23;;;3.77;;
14992;SDS011;7592;51.088;13.732;2022-10-16T18:41:50;7.03;;;3.90;;
14992;SDS011;7592;51.088;13.732;2022-10-16T18:46:57;5.37;;;3.23;;
14992;SDS011;7592;51.088;13.732;2022-10-16T18:52:00;5.83;;;3.17;;
14992;SDS011;7592;51.088;13.732;2022-10-16T18:57:42;6.07;;;4.30;;
14992;SDS011;7592;51.088;13.732;2022-10-16T19:02:42;5.63;;;5.07;;
14992;SDS011;7592;51.088;13.732;2022-10-16T19:07:38;20.20;;;12.13;;
14992;SDS011;7592;51.088;13.732;2022-10-16T19:18:38;7.40;;;4.83;;
14992;SDS011;7592;51.088;13.732;2022-10-16T19:35:05;8.80;;;7.60;;
14992;SDS011;7592;51.088;13.732;2022-10-16T19:41:12;7.53;;;6.93;;
14992;SDS011;7592;51.088;13.732;2022-10-16T19:51:55;9.63;;;8.63;;
14992;SDS011;7592;51.088;13.732;2022-10-16T19:57:28;8.67;;;7.57;;
14992;SDS011;7592;51.088;13.732;2022-10-16T20:03:18;7.73;;;7.00;;
14992;SDS011;7592;51.088;13.732;2022-10-16T20:08:47;8.07;;;7.30;;
14992;SDS011;7592;51.088;13.732;2022-10-16T20:14:12;10.23;;;7.60;;
14992;SDS011;7592;51.088;13.732;2022-10-16T20:25:54;69.53;;;31.33;;
14992;SDS011;7592;51.088;13.732;2022-10-16T20:31:25;8.33;;;6.60;;
14992;SDS011;7592;51.088;13.732;2022-10-16T20:36:51;6.83;;;6.23;;
14992;SDS011;7592;51.088;13.732;2022-10-16T20:41:46;11.33;;;9.00;;
14992;SDS011;7592;51.088;13.732;2022-10-16T20:46:47;8.13;;;7.00;;
14992;SDS011;7592;51.088;13.732;2022-10-16T20:51:47;6.00;;;5.47;;
14992;SDS011;7592;51.088;13.732;2022-10-16T20:56:46;8.07;;;6.10;;
14992;SDS011;7592;51.088;13.732;2022-10-16T21:01:42;8.17;;;6.83;;
14992;SDS011;7592;51.088;13.732;2022-10-16T21:06:36;6.80;;;6.20;;
14992;SDS011;7592;51.088;13.732;2022-10-16T21:11:33;6.60;;;6.00;;
14992;SDS011;7592;51.088;13.732;2022-10-16T21:16:27;7.27;;;6.57;;
14992;SDS011;7592;51.088;13.732;2022-10-16T21:21:27;6.93;;;6.33;;
14992;SDS011;7592;51.088;13.732;2022-10-16T21:31:45;15.93;;;7.23;;
14992;SDS011;7592;51.088;13.732;2022-10-16T21:36:47;13.40;;;7.80;;
14992;SDS011;7592;51.088;13.732;2022-10-16T21:41:40;7.00;;;5.97;;
14992;SDS011;7592;51.088;13.732;2022-10-16T21:46:36;7.00;;;6.37;;
14992;SDS011;7592;51.088;13.732;2022-10-16T21:51:32;6.87;;;6.20;;
14992;SDS011;7592;51.088;13.732;2022-10-16T21:56:27;5.70;;;5.30;;
14992;SDS011;7592;51.088;13.732;2022-10-16T22:01:21;8.83;;;6.30;;
14992;SDS011;7592;51.088;13.732;2022-10-16T22:06:15;12.90;;;6.33;;
14992;SDS011;7592;51.088;13.732;2022-10-16T22:11:13;7.70;;;6.87;;
14992;SDS011;7592;51.088;13.732;2022-10-16T22:16:19;12.77;;;10.40;;
14992;SDS011;7592;51.088;13.732;2022-10-16T22:21:16;13.17;;;11.97;;
14992;SDS011;7592;51.088;13.732;2022-10-16T22:26:12;9.10;;;8.30;;
14992;SDS011;7592;51.088;13.732;2022-10-16T22:31:06;9.47;;;8.80;;
14992;SDS011;7592;51.088;13.732;2022-10-16T22:36:03;7.70;;;6.97;;
14992;SDS011;7592;51.088;13.732;2022-10-16T22:41:01;6.83;;;6.33;;
14992;SDS011;7592;51.088;13.732;2022-10-16T22:46:00;7.23;;;6.53;;
14992;SDS011;7592;51.088;13.732;2022-10-16T22:51:00;6.17;;;5.57;;
14992;SDS011;7592;51.088;13.732;2022-10-16T22:55:56;6.10;;;5.50;;
14992;SDS011;7592;51.088;13.732;2022-10-16T23:05:49;10.37;;;6.77;;
14992;SDS011;7592;51.088;13.732;2022-10-16T23:10:43;6.23;;;5.63;;
14992;SDS011;7592;51.088;13.732;2022-10-16T23:15:38;5.93;;;5.40;;
14992;SDS011;7592;51.088;13.732;2022-10-16T23:20:31;5.23;;;4.60;;
14992;SDS011;7592;51.088;13.732;2022-10-16T23:25:24;5.40;;;5.00;;
14992;SDS011;7592;51.088;13.732;2022-10-16T23:30:16;4.20;;;3.90;;
14992;SDS011;7592;51.088;13.732;2022-10-16T23:35:08;5.37;;;4.93;;
14992;SDS011;7592;51.088;13.732;2022-10-16T23:40:01;4.93;;;4.40;;
14992;SDS011;7592;51.088;13.732;2022-10-16T23:44:55;10.37;;;5.27;;
14992;SDS011;7592;51.088;13.732;2022-10-16T23:49:47;5.07;;;4.30;;
14992;SDS011;7592;51.088;13.732;2022-10-16T23:54:40;6.07;;;4.83;;
14992;SDS011;7592;51.088;13.732;2022-10-16T23:59:33;5.23;;;4.83;;
